createdAt,value
2023-05-25T00:01:18.996Z,94860.41
2023-05-25T00:04:04.547Z,94872.28
2023-05-25T00:06:48.083Z,94869.44
2023-05-25T00:09:31.678Z,94876.00
2023-05-25T00:12:15.829Z,94874.91
2023-05-25T00:15:00.063Z,94852.56
2023-05-25T00:17:55.389Z,94855.81
2023-05-25T00:20:39.046Z,94863.09
2023-05-25T00:23:23.644Z,94855.47
2023-05-25T00:26:07.112Z,94876.75
2023-05-25T00:28:50.661Z,94888.69
2023-05-25T00:31:35.772Z,94883.25
2023-05-25T00:34:21.369Z,94883.97
2023-05-25T00:37:05.222Z,94887.88
2023-05-25T00:39:48.935Z,94890.44
2023-05-25T00:42:33.651Z,94889.69
2023-05-25T00:45:16.986Z,94890.47
2023-05-25T00:48:01.811Z,94882.09
2023-05-25T00:50:47.578Z,94894.06
2023-05-25T00:53:33.907Z,94902.50
2023-05-25T00:56:21.582Z,94895.69
2023-05-25T00:59:07.883Z,94893.88
2023-05-25T01:01:54.174Z,94895.94
2023-05-25T01:04:46.031Z,94903.13
2023-05-25T01:07:32.728Z,94898.00
2023-05-25T01:10:18.218Z,94900.13
2023-05-25T01:13:03.581Z,94891.50
2023-05-25T01:15:47.797Z,94896.25
2023-05-25T01:18:31.517Z,94888.03
2023-05-25T01:21:22.287Z,94889.06
2023-05-25T01:24:12.227Z,94887.72
2023-05-25T01:27:01.888Z,94886.06
2023-05-25T01:29:48.320Z,94880.75
2023-05-25T01:32:33.703Z,94890.41
2023-05-25T01:35:20.011Z,94886.44
2023-05-25T01:38:04.844Z,94885.78
2023-05-25T01:40:48.082Z,94882.94
2023-05-25T01:43:31.472Z,94882.97
2023-05-25T01:46:25.961Z,94883.53
2023-05-25T01:49:18.209Z,94876.91
2023-05-25T01:52:09.773Z,94879.28
2023-05-25T01:55:01.505Z,94876.09
2023-05-25T01:57:47.195Z,94886.53
2023-05-25T02:00:33.129Z,94872.47
2023-05-25T02:03:16.907Z,94874.06
2023-05-25T02:06:00.381Z,94882.91
2023-05-25T02:08:45.867Z,94881.31
2023-05-25T02:11:30.539Z,94878.81
2023-05-25T02:14:14.268Z,94887.09
2023-05-25T02:17:07.670Z,94881.00
2023-05-25T02:19:53.757Z,94881.97
2023-05-25T02:22:38.086Z,94884.25
2023-05-25T02:25:21.479Z,94884.25
2023-05-25T02:28:06.891Z,94894.13
2023-05-25T02:30:50.626Z,94901.72
2023-05-25T02:33:34.747Z,94893.31
2023-05-25T02:36:17.990Z,94904.22
2023-05-25T02:39:01.396Z,94906.28
2023-05-25T02:41:44.692Z,94911.94
2023-05-25T02:44:55.649Z,94895.66
2023-05-25T02:47:39.083Z,94923.94
2023-05-25T02:50:23.634Z,94924.53
2023-05-25T02:53:06.944Z,94926.00
2023-05-25T02:55:50.146Z,94930.63
2023-05-25T02:58:33.564Z,94938.94
2023-05-25T03:01:19.233Z,94937.22
2023-05-25T03:04:03.033Z,94938.13
2023-05-25T03:06:46.514Z,94938.66
2023-05-25T03:09:29.708Z,94938.06
2023-05-25T03:15:41.246Z,94934.44
2023-05-25T03:18:26.687Z,94933.97
2023-05-25T03:21:09.867Z,94948.34
2023-05-25T03:23:53.070Z,94951.16
2023-05-25T03:26:36.508Z,94946.75
2023-05-25T03:29:20.071Z,94946.84
2023-05-25T03:32:06.121Z,94955.88
2023-05-25T03:34:51.102Z,94953.59
2023-05-25T03:37:34.355Z,94951.78
2023-05-25T03:40:18.009Z,94945.06
2023-05-25T03:43:01.167Z,94948.31
2023-05-25T03:45:44.897Z,94954.91
2023-05-25T03:48:28.508Z,94950.94
2023-05-25T03:51:13.326Z,94942.78
2023-05-25T03:53:56.966Z,94954.41
2023-05-25T03:56:40.376Z,94955.69
2023-05-25T03:59:23.842Z,94949.78
2023-05-25T04:02:07.371Z,94961.16
2023-05-25T04:04:52.073Z,94967.09
2023-05-25T04:07:37.217Z,94959.34
2023-05-25T04:10:20.474Z,94971.59
2023-05-25T04:13:03.907Z,94969.63
2023-05-25T04:15:47.941Z,94970.41
2023-05-25T04:18:31.141Z,94971.00
2023-05-25T04:21:14.748Z,94975.38
2023-05-25T04:23:59.532Z,94981.63
2023-05-25T04:26:43.916Z,94975.22
2023-05-25T04:29:27.363Z,94973.31
2023-05-25T04:32:10.988Z,94979.13
2023-05-25T04:34:54.479Z,94981.81
2023-05-25T04:37:40.792Z,94996.59
2023-05-25T04:40:28.356Z,94989.09
2023-05-25T04:43:18.251Z,94994.06
2023-05-25T04:46:02.320Z,94994.28
2023-05-25T04:48:48.517Z,94992.22
2023-05-25T04:51:32.981Z,94997.03
2023-05-25T04:54:16.682Z,94996.19
2023-05-25T04:57:01.814Z,94989.72
2023-05-25T04:59:45.323Z,94983.34
2023-05-25T05:02:28.633Z,94977.09
2023-05-25T05:05:12.178Z,94978.00
2023-05-25T05:07:56.080Z,94976.19
2023-05-25T05:10:39.915Z,94977.59
2023-05-25T05:13:24.813Z,94971.13
2023-05-25T05:16:08.963Z,94970.97
2023-05-25T05:18:52.274Z,94972.41
2023-05-25T05:21:36.012Z,94967.75
2023-05-25T05:24:22.289Z,94969.91
2023-05-25T05:27:05.837Z,94973.63
2023-05-25T05:29:50.520Z,94978.94
2023-05-25T05:32:33.703Z,94986.34
2023-05-25T05:35:17.195Z,94988.97
2023-05-25T05:38:01.881Z,94982.66
2023-05-25T05:40:45.268Z,94994.97
2023-05-25T05:43:28.492Z,94992.56
2023-05-25T05:46:13.227Z,94999.81
2023-05-25T05:48:56.442Z,94997.72
2023-05-25T05:51:39.842Z,94995.31
2023-05-25T05:54:23.051Z,94998.94
2023-05-25T05:57:06.702Z,95008.19
2023-05-25T05:59:50.060Z,95006.03
2023-05-25T06:02:36.636Z,95003.56
2023-05-25T06:05:21.338Z,95001.31
2023-05-25T06:08:05.872Z,95001.50
2023-05-25T06:10:49.869Z,95000.19
2023-05-25T06:13:33.097Z,94994.50
2023-05-25T06:16:19.168Z,95004.59
2023-05-25T06:19:04.189Z,95000.00
2023-05-25T06:21:47.446Z,94999.41
2023-05-25T06:24:31.406Z,95005.94
2023-05-25T06:27:17.638Z,95002.22
2023-05-25T06:30:01.071Z,95001.28
2023-05-25T06:32:44.545Z,95008.66
2023-05-25T06:35:29.488Z,95003.44
2023-05-25T06:38:13.335Z,95003.56
2023-05-25T06:40:56.879Z,95009.00
2023-05-25T06:43:40.164Z,95004.63
2023-05-25T06:46:23.906Z,95008.81
2023-05-25T06:49:07.323Z,95003.56
2023-05-25T06:51:52.725Z,95015.28
2023-05-25T06:54:36.134Z,95010.22
2023-05-25T06:57:19.357Z,95009.91
2023-05-25T07:00:03.261Z,95006.88
2023-05-25T07:02:46.826Z,95012.31
2023-05-25T07:05:30.249Z,95003.75
2023-05-25T07:08:16.750Z,94998.56
2023-05-25T07:11:00.165Z,94997.16
2023-05-25T07:13:43.398Z,95001.84
2023-05-25T07:16:26.928Z,94990.69
2023-05-25T07:19:10.682Z,94992.88
2023-05-25T07:21:53.935Z,94999.22
2023-05-25T07:24:38.665Z,94999.72
2023-05-25T07:27:22.025Z,94995.44
2023-05-25T07:30:06.651Z,95001.69
2023-05-25T07:32:50.187Z,95001.75
2023-05-25T07:35:35.345Z,94999.59
2023-05-25T07:38:18.706Z,95009.59
2023-05-25T07:41:03.458Z,95009.94
2023-05-25T07:43:49.228Z,95005.34
2023-05-25T07:46:32.648Z,95007.22
2023-05-25T07:49:17.168Z,95012.69
2023-05-25T07:52:00.860Z,95006.69
2023-05-25T07:54:44.142Z,95024.84
2023-05-25T07:57:29.886Z,95029.91
2023-05-25T08:00:14.135Z,95029.56
2023-05-25T08:02:59.694Z,95032.66
2023-05-25T08:05:44.337Z,95040.25
2023-05-25T08:08:29.544Z,95030.69
2023-05-25T08:11:13.269Z,95036.25
2023-05-25T08:13:57.880Z,95031.31
2023-05-25T08:16:41.793Z,95041.91
2023-05-25T08:19:25.803Z,95031.53
2023-05-25T08:22:09.258Z,95049.75
2023-05-25T08:24:53.092Z,95054.78
2023-05-25T08:27:36.869Z,95052.44
2023-05-25T08:30:21.981Z,95048.84
2023-05-25T08:33:07.127Z,95057.50
2023-05-25T08:35:50.817Z,95068.34
2023-05-25T08:38:34.122Z,95077.81
2023-05-25T08:41:17.391Z,95078.88
2023-05-25T08:44:06.460Z,95079.91
2023-05-25T08:46:51.366Z,95084.09
2023-05-25T08:49:38.470Z,95079.06
2023-05-25T08:52:24.496Z,95078.28
2023-05-25T08:55:12.119Z,95096.72
2023-05-25T08:57:59.750Z,95100.88
2023-05-25T09:00:49.579Z,95104.78
2023-05-25T09:03:37.941Z,95105.63
2023-05-25T09:06:21.729Z,95108.78
2023-05-25T09:09:06.370Z,95108.53
2023-05-25T09:11:49.740Z,95109.88
2023-05-25T09:14:36.344Z,95116.16
2023-05-25T09:17:20.118Z,95109.59
2023-05-25T09:20:05.507Z,95117.00
2023-05-25T09:22:49.209Z,95109.91
2023-05-25T09:25:35.163Z,95111.44
2023-05-25T09:31:08.202Z,95093.84
2023-05-25T09:33:51.461Z,95094.09
2023-05-25T09:36:41.534Z,95099.31
2023-05-25T09:39:24.995Z,95096.72
2023-05-25T09:42:08.720Z,95090.91
2023-05-25T09:44:52.035Z,95090.50
2023-05-25T09:47:37.848Z,95089.97
2023-05-25T09:50:21.426Z,95087.97
2023-05-25T09:53:06.555Z,95085.59
2023-05-25T09:55:54.201Z,95086.50
2023-05-25T09:58:38.586Z,95077.06
2023-05-25T10:01:22.178Z,95079.25
2023-05-25T10:04:06.144Z,95071.25
2023-05-25T10:06:51.172Z,95076.06
2023-05-25T10:09:39.921Z,95063.44
2023-05-25T10:12:26.366Z,95064.47
2023-05-25T10:15:13.230Z,95056.38
2023-05-25T10:17:59.990Z,95054.34
2023-05-25T10:20:43.837Z,95049.00
2023-05-25T10:23:34.429Z,95051.94
2023-05-25T10:26:21.584Z,95040.97
2023-05-25T10:29:06.222Z,95042.09
2023-05-25T10:31:51.040Z,95031.97
2023-05-25T10:34:35.455Z,95022.69
2023-05-25T10:37:19.810Z,95023.56
2023-05-25T10:40:03.859Z,95021.69
2023-05-25T10:42:48.962Z,95029.03
2023-05-25T10:45:32.250Z,95012.22
2023-05-25T10:48:17.742Z,95017.09
2023-05-25T10:51:01.014Z,95006.88
2023-05-25T10:53:48.434Z,95003.56
2023-05-25T10:56:31.594Z,95008.22
2023-05-25T10:59:16.569Z,95004.22
2023-05-25T11:02:09.618Z,94996.50
2023-05-25T11:05:32.682Z,95004.78
2023-05-25T11:08:17.836Z,94998.75
2023-05-25T11:11:01.449Z,94988.06
2023-05-25T11:13:46.970Z,95007.31
2023-05-25T11:16:37.899Z,95008.47
2023-05-25T11:19:23.337Z,95006.03
2023-05-25T11:22:15.712Z,95005.34
2023-05-25T11:25:00.380Z,95000.13
2023-05-25T11:27:47.877Z,94993.84
2023-05-25T11:30:32.237Z,94996.22
2023-05-25T11:33:17.202Z,95004.13
2023-05-25T11:36:02.348Z,95003.16
2023-05-25T11:38:53.221Z,95003.88
2023-05-25T11:41:51.579Z,95002.56
2023-05-25T11:44:39.252Z,94992.25
2023-05-25T11:47:25.455Z,94990.97
2023-05-25T11:50:17.562Z,95002.34
2023-05-25T11:53:01.422Z,94994.59
2023-05-25T11:55:55.609Z,94999.69
2023-05-25T11:58:48.159Z,94993.84
2023-05-25T12:01:33.224Z,94992.44
2023-05-25T12:04:16.761Z,94993.63
2023-05-25T12:07:06.231Z,94992.56
2023-05-25T12:09:49.850Z,94994.66
2023-05-25T12:12:40.109Z,94985.78
2023-05-25T12:15:25.475Z,94984.72
2023-05-25T12:18:10.158Z,94983.50
2023-05-25T12:20:53.999Z,94978.06
2023-05-25T12:23:38.820Z,94981.00
2023-05-25T12:26:22.158Z,94969.09
2023-05-25T12:29:07.146Z,94967.59
2023-05-25T12:31:52.977Z,94958.16
2023-05-25T12:34:36.916Z,94955.59
2023-05-25T12:37:21.284Z,94932.44
2023-05-25T12:40:18.663Z,94937.09
2023-05-25T12:43:02.069Z,94931.84
2023-05-25T12:45:45.780Z,94932.06
2023-05-25T12:48:29.431Z,94925.38
2023-05-25T12:51:14.087Z,94921.00
2023-05-25T12:53:59.002Z,94916.03
2023-05-25T12:56:56.888Z,94916.34
2023-05-25T12:59:41.862Z,94914.78
2023-05-25T13:02:25.596Z,94907.53
2023-05-25T13:05:19.521Z,94900.78
2023-05-25T13:08:04.177Z,94901.16
2023-05-25T13:10:51.873Z,94886.94
2023-05-25T13:13:36.677Z,94883.41
2023-05-25T13:16:20.108Z,94883.19
2023-05-25T13:19:04.285Z,94881.00
2023-05-25T13:21:49.355Z,94879.63
2023-05-25T13:24:32.764Z,94877.78
2023-05-25T13:27:16.167Z,94882.97
2023-05-25T13:30:00.941Z,94884.19
2023-05-25T13:32:46.187Z,94876.34
2023-05-25T13:35:46.490Z,94881.22
2023-05-25T13:38:29.886Z,94878.03
2023-05-25T13:41:13.864Z,94876.03
2023-05-25T13:43:57.184Z,94879.47
2023-05-25T13:46:41.939Z,94878.13
2023-05-25T13:49:26.346Z,94884.41
2023-05-25T13:52:10.406Z,94880.88
2023-05-25T13:54:54.232Z,94883.03
2023-05-25T13:57:37.847Z,94884.41
2023-05-25T14:00:22.037Z,94881.47
2023-05-25T14:03:07.976Z,94880.47
2023-05-25T14:05:53.876Z,94879.00
2023-05-25T14:08:37.451Z,94880.00
2023-05-25T14:11:27.325Z,94879.88
2023-05-25T14:14:23.248Z,94877.94
2023-05-25T14:17:14.021Z,94877.88
2023-05-25T14:19:59.190Z,94873.41
2023-05-25T14:22:42.515Z,94864.75
2023-05-25T14:25:25.796Z,94860.53
2023-05-25T14:28:09.101Z,94865.31
2023-05-25T14:30:53.470Z,94865.09
2023-05-25T14:33:36.792Z,94864.63
2023-05-25T14:36:21.786Z,94860.78
2023-05-25T14:39:05.421Z,94863.56
2023-05-25T14:41:48.629Z,94860.72
2023-05-25T14:44:32.139Z,94856.09
2023-05-25T14:47:15.737Z,94861.00
2023-05-25T14:49:59.038Z,94845.94
2023-05-25T14:52:45.236Z,94853.16
2023-05-25T14:55:28.535Z,94846.03
2023-05-25T14:58:12.073Z,94851.28
2023-05-25T15:00:55.309Z,94852.03
2023-05-25T15:03:39.016Z,94852.88
2023-05-25T15:06:23.637Z,94868.81
2023-05-25T15:09:08.367Z,94861.69
2023-05-25T15:11:51.675Z,94863.00
2023-05-25T15:14:40.022Z,94866.34
2023-05-25T15:17:23.268Z,94867.31
2023-05-25T15:20:08.072Z,94875.06
2023-05-25T15:22:54.069Z,94863.59
2023-05-25T15:25:39.192Z,94871.16
2023-05-25T15:28:22.548Z,94886.16
2023-05-25T15:31:06.148Z,94869.31
2023-05-25T15:33:58.232Z,94863.13
2023-05-25T15:36:42.420Z,94870.69
2023-05-25T15:39:25.595Z,94871.34
2023-05-25T15:42:10.643Z,94875.09
2023-05-25T15:44:53.897Z,94875.47
2023-05-25T15:47:37.391Z,94886.75
2023-05-25T15:50:20.796Z,94889.00
2023-05-25T15:53:04.118Z,94886.00
2023-05-25T15:55:47.974Z,94882.97
2023-05-25T15:58:34.586Z,94893.25
2023-05-25T16:01:18.111Z,94896.22
2023-05-25T16:04:01.674Z,94900.38
2023-05-25T16:06:45.277Z,94897.69
2023-05-25T16:09:28.976Z,94887.25
2023-05-25T16:12:12.651Z,94897.50
2023-05-25T16:14:57.691Z,94896.72
2023-05-25T16:17:41.229Z,94891.03
2023-05-25T16:20:24.612Z,94894.72
2023-05-25T16:23:08.137Z,94881.41
2023-05-25T16:25:51.702Z,94893.75
2023-05-25T16:28:34.936Z,94894.06
2023-05-25T16:31:19.998Z,94900.63
2023-05-25T16:34:03.372Z,94899.59
2023-05-25T16:36:46.659Z,94901.19
2023-05-25T16:39:30.062Z,94906.97
2023-05-25T16:42:15.960Z,94910.16
2023-05-25T16:44:59.170Z,94918.53
2023-05-25T16:47:43.908Z,94924.59
2023-05-25T16:50:27.261Z,94913.56
2023-05-25T16:53:10.949Z,94919.09
2023-05-25T16:55:54.418Z,94931.19
2023-05-25T16:58:37.612Z,94935.63
2023-05-25T17:01:21.112Z,94932.16
2023-05-25T17:04:06.151Z,94941.63
2023-05-25T17:06:49.778Z,94947.38
2023-05-25T17:09:33.249Z,94935.84
2023-05-25T17:12:16.962Z,94940.81
2023-05-25T17:15:00.497Z,94936.38
2023-05-25T17:17:43.908Z,94945.78
2023-05-25T17:20:28.990Z,94941.59
2023-05-25T17:23:13.664Z,94944.19
2023-05-25T17:25:57.612Z,94949.94
2023-05-25T17:28:41.376Z,94958.28
2023-05-25T17:31:24.955Z,94952.69
2023-05-25T17:34:08.693Z,94968.66
2023-05-25T17:36:53.650Z,94977.47
2023-05-25T17:39:37.450Z,94981.69
2023-05-25T17:42:21.125Z,94979.56
2023-05-25T17:45:05.383Z,94976.34
2023-05-25T17:47:49.036Z,94984.53
2023-05-25T17:50:34.366Z,94965.69
2023-05-25T17:53:19.024Z,94968.06
2023-05-25T17:56:02.563Z,94969.88
2023-05-25T17:58:47.994Z,94976.81
2023-05-25T18:01:31.664Z,94977.94
2023-05-25T18:04:15.116Z,94980.53
2023-05-25T18:07:00.596Z,94988.91
2023-05-25T18:09:45.726Z,94991.09
2023-05-25T18:12:29.241Z,94996.38
2023-05-25T18:15:13.121Z,95004.19
2023-05-25T18:17:56.867Z,95005.25
2023-05-25T18:20:40.691Z,94996.81
2023-05-25T18:23:23.908Z,95013.03
2023-05-25T18:26:09.568Z,95027.13
2023-05-25T18:28:53.398Z,95027.25
2023-05-25T18:31:36.744Z,95029.41
2023-05-25T18:34:22.736Z,95034.13
2023-05-25T18:37:08.938Z,95042.00
2023-05-25T18:39:52.138Z,95053.56
2023-05-25T18:42:36.923Z,95063.50
2023-05-25T18:45:20.130Z,95061.69
2023-05-25T18:48:07.870Z,95067.97
2023-05-25T18:50:51.501Z,95080.03
2023-05-25T18:53:35.054Z,95083.41
2023-05-25T18:56:21.533Z,95086.84
2023-05-25T18:59:06.514Z,95102.56
2023-05-25T19:01:50.267Z,95109.56
2023-05-25T19:04:33.571Z,95121.34
2023-05-25T19:07:16.793Z,95128.97
2023-05-25T19:10:00.196Z,95131.34
2023-05-25T19:12:43.690Z,95140.69
2023-05-25T19:15:30.784Z,95150.03
2023-05-25T19:21:15.409Z,95153.19
2023-05-25T19:23:59.247Z,95164.34
2023-05-25T19:26:42.530Z,95168.59
2023-05-25T19:29:25.851Z,95172.56
2023-05-25T19:32:11.053Z,95166.22
2023-05-25T19:34:54.681Z,95179.06
2023-05-25T19:37:40.937Z,95179.88
2023-05-25T19:40:25.408Z,95179.81
2023-05-25T19:43:11.313Z,95170.84
2023-05-25T19:45:54.607Z,95179.19
2023-05-25T19:48:43.111Z,95181.81
2023-05-25T19:51:27.376Z,95177.09
2023-05-25T19:54:11.880Z,95169.66
2023-05-25T19:56:56.501Z,95168.06
2023-05-25T19:59:40.196Z,95164.19
2023-05-25T20:02:23.638Z,95146.00
2023-05-25T20:05:10.635Z,95135.91
2023-05-25T20:07:59.312Z,95122.28
2023-05-25T20:10:45.281Z,95110.59
2023-05-25T20:13:30.068Z,95107.00
2023-05-25T20:16:14.483Z,95098.13
2023-05-25T20:18:58.281Z,95079.03
2023-05-25T20:21:42.897Z,95067.31
2023-05-25T20:24:26.493Z,95046.66
2023-05-25T20:27:09.667Z,95038.91
2023-05-25T20:29:53.910Z,95024.66
2023-05-25T20:32:37.396Z,95012.34
2023-05-25T20:35:20.882Z,95015.72
2023-05-25T20:38:05.725Z,95033.13
2023-05-25T20:40:49.367Z,95025.75
2023-05-25T20:43:32.554Z,95035.81
2023-05-25T20:46:18.032Z,95026.84
2023-05-25T20:49:04.113Z,95035.66
2023-05-25T20:51:50.175Z,95057.56
2023-05-25T20:54:36.784Z,95064.38
2023-05-25T20:57:20.087Z,95055.00
2023-05-25T21:00:06.225Z,95043.38
2023-05-25T21:02:49.630Z,95031.97
2023-05-25T21:05:34.121Z,95036.56
2023-05-25T21:08:17.426Z,95042.34
2023-05-25T21:11:02.751Z,95032.84
2023-05-25T21:13:46.391Z,95033.66
2023-05-25T21:16:29.731Z,95046.47
2023-05-25T21:19:13.079Z,95052.50
2023-05-25T21:21:56.704Z,95053.75
2023-05-25T21:24:39.883Z,95043.78
2023-05-25T21:27:24.465Z,95039.34
2023-05-25T21:30:09.203Z,95037.78
2023-05-25T21:32:52.516Z,95039.69
2023-05-25T21:35:35.983Z,95030.03
2023-05-25T21:38:19.444Z,95034.16
2023-05-25T21:41:02.850Z,95034.03
2023-05-25T21:43:47.901Z,95042.28
2023-05-25T21:46:31.118Z,95053.50
2023-05-25T21:49:14.362Z,95035.75
2023-05-25T21:51:57.435Z,95035.91
2023-05-25T21:54:40.578Z,95028.22
2023-05-25T21:57:23.971Z,95022.78
2023-05-25T22:00:12.874Z,95027.69
2023-05-25T22:02:56.569Z,95017.72
2023-05-25T22:05:40.153Z,95007.13
2023-05-25T22:08:23.610Z,95008.13
2023-05-25T22:11:06.940Z,95013.59
2023-05-25T22:13:50.146Z,95013.59
2023-05-25T22:16:36.266Z,95009.88
2023-05-25T22:19:19.611Z,95000.13
2023-05-25T22:22:02.997Z,95004.72
2023-05-25T22:24:46.429Z,95002.03
2023-05-25T22:27:29.799Z,94997.44
2023-05-25T22:30:13.840Z,94997.03
2023-05-25T22:32:58.600Z,94991.25
2023-05-25T22:35:41.830Z,94980.41
2023-05-25T22:38:25.624Z,94985.78
2023-05-25T22:41:09.573Z,94986.16
2023-05-25T22:43:54.023Z,94987.72
2023-05-25T22:46:37.517Z,94999.91
2023-05-25T22:49:22.157Z,94999.00
2023-05-25T22:52:06.063Z,94996.75
2023-05-25T22:54:49.333Z,94987.47
2023-05-25T22:57:32.606Z,95004.81
2023-05-25T23:00:16.180Z,95000.53
2023-05-25T23:03:04.010Z,95001.66
2023-05-25T23:05:48.958Z,95009.94
2023-05-25T23:08:32.190Z,95003.47
2023-05-25T23:11:15.803Z,95001.66
2023-05-25T23:14:00.748Z,94993.53
2023-05-25T23:16:44.573Z,95008.25
2023-05-25T23:19:28.149Z,95010.28
2023-05-25T23:22:12.952Z,95007.34
2023-05-25T23:24:56.092Z,95010.75
2023-05-25T23:27:39.504Z,94996.50
2023-05-25T23:30:25.015Z,95004.56
2023-05-25T23:33:08.662Z,95006.25
2023-05-25T23:35:51.916Z,95010.22
2023-05-25T23:38:36.802Z,95012.81
2023-05-25T23:41:20.094Z,95012.41
2023-05-25T23:44:03.186Z,95009.88
2023-05-25T23:46:47.410Z,95016.47
2023-05-25T23:49:30.589Z,95012.41
2023-05-25T23:52:14.231Z,95003.00
2023-05-25T23:54:58.852Z,95000.38
2023-05-25T23:57:42.116Z,95004.13
